Terminal Aerodrome Forecast
Issued by NWS Austin/San Antonio, TX

Home | Current Version | Previous Version | Text Only | Print | Product List | Glossary On
Versions: 1 2 3 4 5 6 7 8 9 10 11 12 13 14 15 16 17 18 19 20 21 22 23 24 25 26 27 28 29 30 31 32
000
FTUS44 KEWX 060520
TAFAUS
TAF
KAUS 060520Z 0606/0712 VRB03KT 6SM BR FEW008
     FM060700 23003KT 4SM BR SCT006
      TEMPO 0607/0611 1SM BR BKN005
     FM061200 24007KT P6SM SKC
     FM061600 33012KT P6SM SKC
     FM062100 34010KT P6SM BKN025=

USA.gov is the U.S. government's official web portal to all federal, state and local government web resources and services.